.
WxDataArchive / Data Records for 2008-01-22
2008-01-21 January 2008 2008-01-23

Data Records for Tuesday, 22 January 2008

Time	Temp	Chill	HIndex	Humid	Dewpt	 Wind 	HiWind	WindDir	Rain 	Barom 
-----	----	-----	------	-----	-----	------	------	-------	-----	----- 
00:00	28.7	28.7	28.7	42	8.5	1	5	112	0.00	30.173 
00:05	28.7	28.7	28.7	41	8.0	0	3	112	0.00	30.171 
00:10	28.8	28.8	28.8	41	8.1	1	3	135	0.00	30.168 
00:15	28.8	28.8	28.8	41	8.1	0	3	248	0.00	30.169 
00:20	29.0	29.0	29.0	41	8.3	1	4	248	0.00	30.170 
00:25	29.0	29.0	29.0	41	8.3	1	4	248	0.00	30.168 
00:30	29.0	29.0	29.0	41	8.3	1	3	22	0.00	30.159 
00:35	29.1	29.1	29.1	41	8.4	1	3	270	0.00	30.153 
00:40	29.1	29.1	29.1	42	8.9	1	5	248	0.00	30.153 
00:45	29.1	29.1	29.1	41	8.4	1	2	270	0.00	30.152 
00:50	29.3	29.3	29.3	41	8.6	1	4	270	0.00	30.147 
00:55	29.3	29.3	29.3	42	9.1	1	4	135	0.00	30.138 
01:00	29.3	29.3	29.3	41	8.6	2	6	112	0.00	30.130 
01:05	29.4	29.4	29.4	42	9.2	1	3	68	0.00	30.126 
01:10	29.4	29.4	29.4	42	9.2	1	5	68	0.00	30.121 
01:15	29.4	29.4	29.4	42	9.2	1	4	90	0.00	30.118 
01:20	29.5	29.5	29.5	42	9.3	1	6	45	0.00	30.111 
01:25	29.5	29.5	29.5	42	9.3	1	3	45	0.00	30.103 
01:30	29.7	29.7	29.7	41	8.9	1	4	270	0.00	30.102 
01:35	29.8	29.8	29.8	40	8.5	1	4	270	0.00	30.100 
01:40	30.0	30.0	30.0	39	8.1	1	7	90	0.00	30.093 
01:45	30.1	30.1	30.1	39	8.2	1	6	248	0.00	30.097 
01:50	30.4	30.4	30.4	39	8.4	2	7	270	0.00	30.098 
01:55	30.4	30.4	30.4	39	8.4	1	5	248	0.00	30.093 
02:00	30.6	30.6	30.6	39	8.6	1	5	248	0.00	30.091 
02:05	30.7	30.7	30.7	38	8.1	2	6	248	0.00	30.097 
02:10	31.0	26.9	31.0	38	8.4	4	13	248	0.00	30.099 
02:15	31.3	26.3	31.3	39	9.2	5	12	248	0.00	30.085 
02:20	31.5	31.5	31.5	39	9.4	3	12	248	0.00	30.085 
02:25	31.5	31.5	31.5	40	10.0	2	9	248	0.00	30.084 
02:30	31.5	31.5	31.5	41	10.5	2	6	248	0.00	30.083 
02:35	31.5	31.5	31.5	40	10.0	3	5	248	0.00	30.081 
02:40	31.5	27.5	31.5	44	12.1	4	15	270	0.00	30.071 
02:45	31.3	27.3	31.3	50	14.8	4	12	248	0.00	30.070 
02:50	30.9	25.8	30.9	56	17.1	5	15	270	0.00	30.068 
02:55	30.6	26.5	30.6	60	18.4	4	12	270	0.00	30.066 
03:00	30.1	25.9	30.1	62	18.7	4	14	248	0.00	30.067 
03:05	30.0	30.0	30.0	62	18.6	3	11	270	0.00	30.066 
03:10	30.1	24.0	30.1	59	17.5	6	12	270	0.00	30.068 
03:15	30.1	30.1	30.1	61	18.3	3	7	248	0.00	30.066 
03:20	29.4	23.1	29.4	71	21.2	6	16	270	0.00	30.062 
03:25	28.8	24.4	28.8	76	22.2	4	11	270	0.00	30.057 
03:30	28.2	23.7	28.2	80	22.8	4	11	248	0.00	30.054 
03:35	27.9	27.9	27.9	82	23.1	3	7	248	0.00	30.051 
03:40	27.6	27.6	27.6	84	23.4	2	7	248	0.00	30.042 
03:45	27.6	27.6	27.6	84	23.4	2	8	248	0.00	30.044 
03:50	27.5	22.9	27.5	85	23.6	4	9	270	0.00	30.041 
03:55	27.5	27.5	27.5	86	23.9	3	9	248	0.00	30.039 
04:00	27.5	27.5	27.5	87	24.1	2	10	248	0.00	30.038 
04:05	27.3	27.3	27.3	88	24.2	3	5	248	0.00	30.035 
04:10	27.3	27.3	27.3	89	24.5	3	9	248	0.00	30.030 
04:15	27.3	27.3	27.3	90	24.8	2	8	248	0.00	30.027 
04:20	27.3	27.3	27.3	90	24.8	2	6	248	0.00	30.023 
04:25	27.3	27.3	27.3	91	25.0	3	7	248	0.00	30.020 
04:30	27.3	27.3	27.3	91	25.0	2	7	248	0.00	30.018 
04:35	27.5	27.5	27.5	92	25.5	2	10	248	0.00	30.012 
04:40	27.5	27.5	27.5	92	25.5	3	7	248	0.00	30.007 
04:45	27.6	27.6	27.6	92	25.6	3	7	248	0.00	30.005 
04:50	27.6	27.6	27.6	92	25.6	3	11	248	0.00	30.005 
04:55	27.8	27.8	27.8	93	26.0	3	7	248	0.00	30.002 
05:00	27.8	27.8	27.8	93	26.0	3	10	248	0.00	29.998 
05:05	27.9	27.9	27.9	93	26.1	3	9	248	0.00	29.998 
05:10	27.9	27.9	27.9	93	26.1	3	9	248	0.00	29.997 
05:15	27.9	27.9	27.9	93	26.1	3	9	248	0.00	29.994 
05:20	28.1	28.1	28.1	93	26.3	3	10	248	0.00	29.992 
05:25	28.1	23.6	28.1	93	26.3	4	10	270	0.00	29.992 
05:30	28.1	28.1	28.1	93	26.3	3	6	248	0.00	29.990 
05:35	28.2	28.2	28.2	93	26.4	3	9	248	0.00	29.991 
05:40	28.2	28.2	28.2	93	26.4	3	9	248	0.00	29.990 
05:45	28.4	23.9	28.4	93	26.6	4	11	248	0.00	29.990 
05:50	28.4	23.9	28.4	93	26.6	4	10	248	0.00	29.990 
05:55	28.5	23.0	28.5	92	26.5	5	15	248	0.00	29.991 
06:00	28.7	24.3	28.7	92	26.7	4	11	270	0.00	29.989 
06:05	28.7	22.3	28.7	92	26.7	6	17	270	0.00	29.986 
06:10	28.8	24.4	28.8	91	26.5	4	15	270	0.00	29.988 
06:15	29.0	24.6	29.0	90	26.4	4	15	270	0.00	29.982 
06:20	29.0	24.6	29.0	90	26.4	4	10	270	0.00	29.982 
06:25	29.0	23.6	29.0	90	26.4	5	10	248	0.00	29.980 
06:30	29.1	23.7	29.1	89	26.3	5	11	248	0.00	29.979 
06:35	29.1	29.1	29.1	89	26.3	3	7	248	0.00	29.978 
06:40	29.3	25.0	29.3	89	26.5	4	10	270	0.00	29.977 
06:45	29.3	25.0	29.3	89	26.5	4	9	248	0.00	29.972 
06:50	29.4	24.0	29.4	89	26.6	5	11	270	0.00	29.974 
06:55	29.4	25.1	29.4	89	26.6	4	9	248	0.00	29.975 
07:00	29.5	23.3	29.5	88	26.4	6	12	270	0.00	29.973 
07:05	29.5	23.3	29.5	88	26.4	6	15	248	0.00	29.974 
07:10	29.7	24.4	29.7	88	26.6	5	12	248	0.00	29.974 
07:15	29.7	23.5	29.7	88	26.6	6	16	270	0.00	29.971 
07:20	29.7	24.4	29.7	88	26.6	5	13	270	0.00	29.972 
07:25	29.8	23.6	29.8	87	26.4	6	12	270	0.00	29.969 
07:30	29.8	24.5	29.8	87	26.4	5	12	270	0.00	29.972 
07:35	30.0	23.8	30.0	87	26.6	6	13	248	0.00	29.971 
07:40	30.0	30.0	30.0	87	26.6	3	9	270	0.00	29.969 
07:45	30.0	25.8	30.0	87	26.6	4	12	270	0.00	29.970 
07:50	30.1	25.9	30.1	87	26.7	4	8	270	0.00	29.968 
07:55	30.3	23.4	30.3	87	26.9	7	16	248	0.00	29.970 
08:00	30.3	25.1	30.3	87	26.9	5	14	270	0.00	29.967 
08:05	30.3	25.1	30.3	87	26.9	5	11	270	0.00	29.970 
08:10	30.3	25.1	30.3	88	27.2	5	11	270	0.00	29.963 
08:15	30.4	26.2	30.4	88	27.3	4	11	270	0.00	29.962 
08:20	30.4	25.2	30.4	88	27.3	5	13	270	0.00	29.965 
08:25	30.4	25.2	30.4	88	27.3	5	12	270	0.00	29.968 
08:30	30.6	25.4	30.6	88	27.5	5	10	248	0.00	29.967 
08:35	30.6	26.5	30.6	88	27.5	4	13	248	0.00	29.965 
08:40	30.7	25.5	30.7	88	27.6	5	15	270	0.00	29.964 
08:45	30.7	24.7	30.7	88	27.6	6	14	248	0.00	29.967 
08:50	30.9	25.8	30.9	87	27.5	5	11	270	0.00	29.970 
08:55	31.0	25.0	31.0	87	27.6	6	15	270	0.00	29.965 
09:00	31.0	25.9	31.0	86	27.3	5	14	270	0.00	29.965 
09:05	31.2	25.3	31.2	86	27.5	6	16	270	0.00	29.963 
09:10	31.3	26.3	31.3	85	27.3	5	14	248	0.00	29.969 
09:15	31.3	26.3	31.3	85	27.3	5	14	270	0.00	29.967 
09:20	31.5	25.6	31.5	85	27.5	6	15	248	0.00	29.964 
09:25	31.5	26.5	31.5	85	27.5	5	14	270	0.00	29.965 
09:30	31.5	25.6	31.5	85	27.5	6	16	270	0.00	29.964 
09:35	31.5	24.9	31.5	85	27.5	7	14	248	0.00	29.963 
09:40	31.5	26.5	31.5	86	27.8	5	13	270	0.00	29.965 
09:45	31.5	26.5	31.5	86	27.8	5	11	270	0.00	29.962 
09:50	31.5	26.5	31.5	86	27.8	5	12	248	0.00	29.958 
09:55	31.5	27.5	31.5	87	28.1	4	12	248	0.00	29.955 
10:00	31.5	26.5	31.5	87	28.1	5	10	248	0.00	29.956 
10:05	31.3	31.3	31.3	87	27.9	3	7	270	0.00	29.954 
10:10	31.5	31.5	31.5	88	28.4	3	7	248	0.00	29.953 
10:15	31.3	26.3	31.3	87	27.9	5	10	270	0.00	29.953 
10:20	31.5	27.5	31.5	87	28.1	4	9	270	0.00	29.950 
10:25	31.5	27.5	31.5	87	28.1	4	7	248	0.00	29.951 
10:30	31.6	27.6	31.6	86	27.9	4	11	248	0.00	29.952 
10:35	31.6	25.8	31.6	86	27.9	6	14	248	0.00	29.953 
10:40	31.8	26.8	31.8	85	27.8	5	10	248	0.00	29.953 
10:45	31.8	27.8	31.8	84	27.5	4	13	270	0.00	29.953 
10:50	31.6	25.8	31.6	82	26.7	6	14	270	0.00	29.954 
10:55	31.6	25.8	31.6	81	26.5	6	16	292	0.00	29.955 
11:00	31.6	26.6	31.6	82	26.7	5	11	248	0.00	29.962 
11:05	31.6	25.8	31.6	82	26.7	6	15	270	0.00	29.955 
11:10	31.5	27.5	31.5	82	26.7	4	14	270	0.00	29.956 
11:15	31.2	26.1	31.2	80	25.8	5	13	270	0.00	29.960 
11:20	30.6	22.5	30.6	76	24.0	9	15	270	0.00	29.964 
11:25	30.6	23.8	30.6	74	23.3	7	20	270	0.00	29.967 
11:30	30.4	23.6	30.4	74	23.1	7	17	270	0.00	29.966 
11:35	30.3	24.2	30.3	74	23.0	6	11	270	0.00	29.969 
11:40	30.0	23.8	30.0	74	22.7	6	12	270	0.00	29.972 
11:45	29.8	24.5	29.8	75	22.9	5	11	270	0.00	29.973 
11:50	29.7	23.5	29.7	76	23.1	6	18	270	0.00	29.975 
11:55	29.5	23.3	29.5	76	22.9	6	15	270	0.00	29.975 
12:00	29.4	21.7	29.4	77	23.1	8	16	270	0.00	29.974 
12:05	29.4	24.0	29.4	77	23.1	5	12	270	0.00	29.975 
12:10	29.1	22.8	29.1	77	22.8	6	12	270	0.00	29.976 
12:15	28.7	20.8	28.7	77	22.4	8	17	270	0.00	29.977 
12:20	28.4	21.2	28.4	77	22.1	7	19	270	0.00	29.976 
12:25	28.4	21.9	28.4	78	22.4	6	20	270	0.00	29.978 
12:30	28.4	22.8	28.4	78	22.4	5	15	270	0.00	29.979 
12:35	28.2	21.7	28.2	78	22.2	6	16	270	0.00	29.980 
12:40	28.2	22.6	28.2	78	22.2	5	12	270	0.00	29.984 
12:45	28.2	21.7	28.2	78	22.2	6	14	270	0.00	29.981 
12:50	28.2	23.7	28.2	78	22.2	4	12	270	0.00	29.979 
12:55	28.2	23.7	28.2	79	22.5	4	9	270	0.00	29.980 
13:00	28.1	23.6	28.1	78	22.1	4	11	270	0.00	29.982 
13:05	28.1	22.5	28.1	78	22.1	5	12	270	0.00	29.979 
13:10	28.1	22.5	28.1	78	22.1	5	12	270	0.00	29.976 
13:15	28.1	23.6	28.1	77	21.8	4	13	270	0.00	29.982 
13:20	28.1	23.6	28.1	77	21.8	4	7	270	0.00	29.985 
13:25	28.1	23.6	28.1	76	21.5	4	6	270	0.00	29.984 
13:30	28.1	23.6	28.1	76	21.5	4	9	270	0.00	29.986 
13:35	28.1	28.1	28.1	76	21.5	3	9	270	0.00	29.985 
13:40	27.9	27.9	27.9	76	21.3	3	6	270	0.00	29.986 
13:45	27.8	23.2	27.8	75	20.9	4	9	270	0.00	29.986 
13:50	27.6	27.6	27.6	75	20.7	3	10	270	0.00	29.986 
13:55	27.5	22.9	27.5	74	20.3	4	9	270	0.00	29.986 
14:00	27.2	21.4	27.2	73	19.7	5	11	270	0.01	29.987 
14:05	27.3	27.3	27.3	74	20.1	3	7	270	0.00	29.988 
14:10	27.2	22.5	27.2	72	19.4	4	9	270	0.00	29.989 
14:15	27.0	21.2	27.0	72	19.2	5	13	270	0.00	29.991 
14:20	26.7	26.7	26.7	71	18.6	3	7	270	0.00	29.991 
14:25	26.6	21.8	26.6	72	18.8	4	9	270	0.00	29.993 
14:30	26.4	26.4	26.4	72	18.6	3	12	270	0.00	29.993 
14:35	26.3	21.5	26.3	71	18.2	4	11	270	0.00	30.000 
14:40	25.8	20.9	25.8	70	17.4	4	11	270	0.00	30.003 
14:45	25.7	25.7	25.7	70	17.3	3	13	270	0.00	30.004 
14:50	25.4	19.3	25.4	70	17.0	5	11	270	0.00	30.007 
14:55	25.4	25.4	25.4	71	17.3	2	6	270	0.00	30.008 
15:00	25.1	25.1	25.1	71	17.0	3	6	270	0.00	30.014 
15:05	24.8	24.8	24.8	71	16.8	3	7	270	0.00	30.022 
15:10	24.7	24.7	24.7	72	17.0	3	10	270	0.00	30.024 
15:15	24.5	24.5	24.5	72	16.8	3	6	292	0.00	30.025 
15:20	24.4	19.3	24.4	71	16.4	4	11	270	0.00	30.026 
15:25	24.4	24.4	24.4	72	16.7	2	4	270	0.00	30.026 
15:30	24.2	24.2	24.2	70	15.9	3	7	270	0.00	30.032 
15:35	24.1	24.1	24.1	69	15.4	3	6	270	0.00	30.035 
15:40	23.9	23.9	23.9	69	15.2	3	7	270	0.00	30.036 
15:45	23.8	23.8	23.8	69	15.1	3	6	292	0.00	30.040 
15:50	23.6	23.6	23.6	68	14.6	2	6	270	0.00	30.040 
15:55	23.6	23.6	23.6	67	14.3	2	5	292	0.00	30.040 
16:00	23.6	23.6	23.6	65	13.6	3	6	270	0.00	30.040 
16:05	23.5	23.5	23.5	65	13.5	3	5	270	0.00	30.040 
16:10	23.2	23.2	23.2	64	12.9	3	5	270	0.00	30.041 
16:15	23.0	23.0	23.0	65	13.0	2	7	292	0.00	30.043 
16:20	23.0	23.0	23.0	65	13.0	2	5	270	0.00	30.043 
16:25	23.0	23.0	23.0	65	13.0	3	6	270	0.00	30.043 
16:30	22.7	22.7	22.7	64	12.4	3	6	270	0.00	30.044 
16:35	22.5	22.5	22.5	65	12.5	3	9	270	0.00	30.046 
16:40	22.2	22.2	22.2	65	12.3	3	6	270	0.00	30.048 
16:45	22.2	22.2	22.2	66	12.6	3	7	270	0.00	30.052 
16:50	22.2	22.2	22.2	66	12.6	3	10	270	0.00	30.046 
16:55	22.1	22.1	22.1	66	12.5	3	7	270	0.00	30.046 
17:00	21.9	21.9	21.9	67	12.7	2	6	270	0.00	30.047 
17:05	21.9	21.9	21.9	67	12.7	3	10	270	0.00	30.048 
17:10	21.8	21.8	21.8	65	11.9	2	5	270	0.00	30.053 
17:15	21.4	21.4	21.4	65	11.5	1	3	292	0.00	30.054 
17:20	21.1	21.1	21.1	65	11.2	1	5	270	0.00	30.053 
17:25	21.0	21.0	21.0	66	11.5	2	7	270	0.00	30.055 
17:30	20.8	20.8	20.8	66	11.3	2	5	270	0.00	30.054 
17:35	20.5	20.5	20.5	66	11.0	2	4	270	0.00	30.057 
17:40	20.3	20.3	20.3	65	10.4	2	4	270	0.00	30.060 
17:45	20.0	20.0	20.0	64	9.8	1	4	270	0.00	30.061 
17:50	19.9	19.9	19.9	63	9.4	1	4	270	0.00	30.062 
17:55	19.7	19.7	19.7	63	9.2	1	3	248	0.00	30.064 
18:00	19.7	19.7	19.7	64	9.5	1	3	248	0.00	30.066 
18:05	19.4	19.4	19.4	64	9.2	0	2	270	0.00	30.067 
18:10	19.2	19.2	19.2	64	9.0	0	1	248	0.00	30.070 
18:15	18.9	18.9	18.9	65	9.1	1	3	248	0.00	30.069 
18:20	18.8	18.8	18.8	65	9.0	0	2	248	0.00	30.073 
18:25	18.6	18.6	18.6	65	8.8	1	3	248	0.00	30.075 
18:30	18.6	18.6	18.6	65	8.8	1	4	248	0.00	30.076 
18:35	18.6	18.6	18.6	66	9.2	1	5	248	0.00	30.077 
18:40	18.4	18.4	18.4	65	8.6	1	3	248	0.00	30.079 
18:45	18.4	18.4	18.4	65	8.6	1	4	248	0.00	30.080 
18:50	18.4	18.4	18.4	65	8.6	2	5	248	0.00	30.081 
18:55	18.4	18.4	18.4	64	8.3	1	5	248	0.00	30.082 
19:00	18.3	18.3	18.3	64	8.2	2	7	248	0.00	30.085 
19:05	18.1	18.1	18.1	64	8.0	1	5	248	0.00	30.087 
19:10	18.0	18.0	18.0	65	8.3	2	5	248	0.00	30.087 
19:15	18.0	18.0	18.0	65	8.3	2	5	248	0.00	30.090 
19:20	17.8	17.8	17.8	66	8.4	2	7	248	0.00	30.090 
19:25	17.5	17.5	17.5	66	8.1	2	7	248	0.00	30.090 
19:30	17.3	17.3	17.3	66	7.9	2	5	248	0.00	30.092 
19:35	17.2	17.2	17.2	67	8.2	3	13	248	0.00	30.093 
19:40	16.9	16.9	16.9	67	7.9	1	5	248	0.00	30.094 
19:45	16.7	16.7	16.7	67	7.7	2	7	270	0.00	30.094 
19:50	16.4	16.4	16.4	67	7.4	2	6	248	0.00	30.097 
19:55	16.2	16.2	16.2	67	7.2	2	9	248	0.00	30.099 
20:00	16.1	16.1	16.1	68	7.4	2	6	248	0.00	30.102 
20:05	15.9	15.9	15.9	68	7.2	3	9	270	0.00	30.100 
20:10	15.7	15.7	15.7	67	6.7	2	5	270	0.00	30.098 
20:15	15.6	15.6	15.6	67	6.6	2	6	270	0.00	30.102 
20:20	15.2	15.2	15.2	67	6.2	2	6	248	0.00	30.103 
20:25	15.2	15.2	15.2	68	6.6	3	7	270	0.00	30.104 
20:30	15.1	15.1	15.1	69	6.8	3	7	248	0.00	30.103 
20:35	14.9	14.9	14.9	69	6.6	2	11	248	0.00	30.102 
20:40	14.9	14.9	14.9	70	6.9	3	12	248	0.00	30.103 
20:45	14.8	14.8	14.8	71	7.1	3	9	248	0.00	30.101 
20:50	14.6	14.6	14.6	71	6.9	2	7	248	0.00	30.101 
20:55	14.4	7.7	14.4	71	6.7	4	10	248	0.00	30.102 
21:00	14.3	7.6	14.3	72	7.0	4	12	248	0.00	30.101 
21:05	14.1	14.1	14.1	72	6.8	3	11	270	0.00	30.099 
21:10	14.1	7.4	14.1	72	6.8	4	11	270	0.00	30.099 
21:15	14.0	7.3	14.0	72	6.7	4	12	248	0.00	30.098 
21:20	13.8	5.7	13.8	72	6.5	5	14	270	0.00	30.097 
21:25	13.8	5.7	13.8	71	6.2	5	13	248	0.00	30.096 
21:30	13.6	6.8	13.6	72	6.3	4	12	270	0.00	30.099 
21:35	13.5	6.7	13.5	71	5.9	4	14	270	0.00	30.099 
21:40	13.5	6.7	13.5	72	6.2	4	10	248	0.00	30.099 
21:45	13.3	13.3	13.3	72	6.0	3	11	270	0.00	30.101 
21:50	13.1	6.2	13.1	72	5.8	4	10	270	0.00	30.100 
21:55	12.9	12.9	12.9	72	5.6	3	11	270	0.00	30.101 
22:00	12.9	6.0	12.9	71	5.3	4	12	248	0.00	30.105 
22:05	12.8	12.8	12.8	71	5.2	3	9	270	0.00	30.104 
22:10	12.6	12.6	12.6	71	5.0	3	11	248	0.00	30.105 
22:15	12.6	5.7	12.6	70	4.7	4	11	248	0.00	30.105 
22:20	12.6	5.7	12.6	70	4.7	4	17	270	0.00	30.107 
22:25	12.6	5.7	12.6	70	4.7	4	11	270	0.00	30.109 
22:30	12.4	5.4	12.4	70	4.5	4	10	248	0.00	30.111 
22:35	12.4	4.1	12.4	69	4.2	5	11	270	0.00	30.110 
22:40	12.4	12.4	12.4	69	4.2	3	9	248	0.00	30.109 
22:45	12.3	12.3	12.3	69	4.1	3	10	270	0.00	30.107 
22:50	12.3	12.3	12.3	69	4.1	2	9	270	0.00	30.108 
22:55	12.3	12.3	12.3	69	4.1	3	11	270	0.00	30.109 
23:00	12.3	12.3	12.3	69	4.1	3	12	270	0.00	30.108 
23:05	12.3	5.3	12.3	69	4.1	4	10	270	0.00	30.111 
23:10	12.1	12.1	12.1	69	3.9	3	9	270	0.00	30.113 
23:15	12.1	12.1	12.1	70	4.2	3	13	270	0.00	30.114 
23:20	11.9	11.9	11.9	70	4.0	2	5	270	0.00	30.111 
23:25	11.9	11.9	11.9	71	4.3	2	7	270	0.00	30.111 
23:30	11.9	11.9	11.9	71	4.3	2	7	248	0.00	30.111 
23:35	11.7	11.7	11.7	72	4.4	2	7	248	0.00	30.112 
23:40	11.7	11.7	11.7	72	4.4	3	7	270	0.00	30.111 
23:45	11.9	4.9	11.9	72	4.6	4	10	270	0.00	30.107 
23:50	11.9	11.9	11.9	72	4.6	3	10	248	0.00	30.106 
23:55	11.9	11.9	11.9	72	4.6	3	11	270	0.00	30.102 

CoCoRaHS
IN-AL-39
A2 Web Hosting
Creative Commons License
GoDaddy
Look for:

loaded 2017-10-17 09:20:00 • last modified 2010-11-18 10:43:29
Privacy PolicyDisclaimer
• wx.awcolley.com is powered by PmWiki v.2002016 •
• all content (unless otherwise noted) © 2017 A W Colley